createdAt,value
2022-07-31T00:00:27.452Z,25.20
2022-07-31T00:03:15.221Z,25.00
2022-07-31T00:06:02.970Z,25.20
2022-07-31T00:08:51.007Z,25.30
2022-07-31T00:11:38.750Z,25.30
2022-07-31T00:14:26.418Z,25.30
2022-07-31T00:17:14.114Z,25.30
2022-07-31T00:20:02.301Z,25.40
2022-07-31T00:22:50.639Z,25.40
2022-07-31T00:25:38.614Z,25.40
2022-07-31T00:28:26.988Z,25.40
2022-07-31T00:31:14.552Z,25.40
2022-07-31T00:34:02.168Z,25.30
2022-07-31T00:36:49.974Z,25.20
2022-07-31T00:39:38.584Z,25.20
2022-07-31T00:42:26.592Z,25.20
2022-07-31T00:45:14.197Z,25.20
2022-07-31T00:48:04.034Z,25.10
2022-07-31T00:50:52.344Z,25.20
2022-07-31T00:53:39.998Z,25.20
2022-07-31T00:56:27.608Z,25.10
2022-07-31T00:59:15.269Z,25.20
2022-07-31T01:02:04.749Z,25.20
2022-07-31T01:04:52.314Z,25.20
2022-07-31T01:07:39.893Z,25.20
2022-07-31T01:11:12.412Z,25.10
2022-07-31T01:14:05.733Z,25.20
2022-07-31T01:16:56.754Z,25.20
2022-07-31T01:19:47.331Z,25.20
2022-07-31T01:23:02.139Z,25.20
2022-07-31T01:26:03.145Z,24.90
2022-07-31T01:29:10.434Z,25.00
2022-07-31T01:32:10.919Z,25.00
2022-07-31T01:35:11.886Z,25.10
2022-07-31T01:38:11.765Z,25.10
2022-07-31T01:41:04.749Z,25.00
2022-07-31T01:43:57.130Z,24.90
2022-07-31T01:46:48.150Z,24.90
2022-07-31T01:49:37.859Z,24.90
2022-07-31T01:52:29.884Z,24.70
2022-07-31T01:55:18.651Z,24.80
2022-07-31T01:58:07.722Z,24.80
2022-07-31T02:00:58.629Z,24.80
2022-07-31T02:03:51.481Z,24.70
2022-07-31T02:06:49.149Z,24.80
2022-07-31T02:09:38.154Z,24.80
2022-07-31T02:12:47.217Z,24.70
2022-07-31T02:15:36.279Z,24.80
2022-07-31T02:18:25.604Z,24.70
2022-07-31T02:21:13.194Z,24.80
2022-07-31T02:24:00.954Z,24.70
2022-07-31T02:26:49.289Z,24.60
2022-07-31T02:29:40.261Z,24.60
2022-07-31T02:32:31.589Z,24.60
2022-07-31T02:35:20.286Z,24.40
2022-07-31T02:38:17.102Z,24.40
2022-07-31T02:41:17.311Z,24.50
2022-07-31T02:44:05.768Z,24.50
2022-07-31T02:46:54.019Z,24.30
2022-07-31T02:49:43.177Z,24.30
2022-07-31T02:52:33.825Z,24.20
2022-07-31T02:55:21.785Z,24.40
2022-07-31T02:58:09.516Z,24.50
2022-07-31T03:01:07.444Z,24.20
2022-07-31T03:03:55.121Z,24.20
2022-07-31T03:06:50.368Z,24.30
2022-07-31T03:09:37.887Z,23.90
2022-07-31T03:12:25.549Z,24.00
2022-07-31T03:15:20.086Z,24.10
2022-07-31T03:18:11.896Z,24.00
2022-07-31T03:20:59.691Z,23.90
2022-07-31T03:23:47.892Z,23.80
2022-07-31T03:26:36.270Z,23.90
2022-07-31T03:29:39.236Z,23.70
2022-07-31T03:32:30.734Z,23.60
2022-07-31T03:35:18.607Z,23.60
2022-07-31T03:38:40.654Z,23.50
2022-07-31T03:41:13.764Z,23.40
2022-07-31T03:44:02.659Z,23.40
2022-07-31T03:46:50.401Z,23.40
2022-07-31T03:49:38.810Z,23.50
2022-07-31T03:52:26.336Z,23.70
2022-07-31T03:55:14.729Z,23.70
2022-07-31T03:58:04.919Z,23.40
2022-07-31T04:00:55.208Z,23.60
2022-07-31T04:03:43.069Z,23.70
2022-07-31T04:06:30.549Z,23.70
2022-07-31T04:09:18.837Z,23.80
2022-07-31T04:12:07.452Z,23.70
2022-07-31T04:14:55.205Z,23.80
2022-07-31T04:17:42.879Z,23.80
2022-07-31T04:20:30.334Z,23.90
2022-07-31T04:23:17.865Z,23.80
2022-07-31T04:26:07.039Z,24.20
2022-07-31T04:28:54.733Z,24.80
2022-07-31T04:31:42.405Z,25.10
2022-07-31T04:34:29.879Z,25.40
2022-07-31T04:37:17.448Z,26.00
2022-07-31T04:40:05.541Z,26.50
2022-07-31T04:42:55.669Z,26.90
2022-07-31T04:45:43.704Z,27.50
2022-07-31T04:48:31.160Z,27.60
2022-07-31T04:51:21.020Z,27.80
2022-07-31T04:54:10.110Z,28.60
2022-07-31T04:56:57.660Z,28.30
2022-07-31T04:59:59.663Z,29.00
2022-07-31T05:02:48.602Z,29.50
2022-07-31T05:05:36.086Z,29.70
2022-07-31T05:08:23.557Z,29.80
2022-07-31T05:11:23.001Z,30.20
2022-07-31T05:14:13.415Z,30.00
2022-07-31T05:17:01.005Z,29.80
2022-07-31T05:19:48.582Z,29.40
2022-07-31T05:22:36.049Z,28.80
2022-07-31T05:25:23.502Z,29.00
2022-07-31T05:28:11.000Z,28.10
2022-07-31T05:31:00.465Z,27.30
2022-07-31T05:33:50.217Z,26.30
2022-07-31T05:36:37.726Z,26.40
2022-07-31T05:39:25.383Z,26.00
2022-07-31T05:42:12.866Z,25.80
2022-07-31T05:45:00.362Z,25.60
2022-07-31T05:47:47.954Z,25.20
2022-07-31T05:50:35.520Z,25.10
2022-07-31T05:53:23.652Z,26.00
2022-07-31T05:56:11.185Z,25.90
2022-07-31T05:58:58.720Z,26.40
2022-07-31T06:01:46.654Z,27.30
2022-07-31T06:04:34.338Z,27.80
2022-07-31T06:07:21.850Z,27.20
2022-07-31T06:10:09.991Z,28.40
2022-07-31T06:12:57.481Z,27.80
2022-07-31T06:15:49.408Z,27.80
2022-07-31T06:18:37.080Z,27.50
2022-07-31T06:21:28.746Z,27.50
2022-07-31T06:24:18.160Z,27.40
2022-07-31T06:27:05.700Z,27.70
2022-07-31T06:29:57.963Z,27.20
2022-07-31T06:32:45.467Z,27.20
2022-07-31T06:35:33.196Z,27.80
2022-07-31T06:38:24.384Z,27.30
2022-07-31T06:41:11.976Z,27.40
2022-07-31T06:43:59.506Z,27.30
2022-07-31T06:46:49.024Z,27.50
2022-07-31T06:49:36.894Z,27.70
2022-07-31T06:52:27.630Z,27.70
2022-07-31T06:55:15.184Z,27.60
2022-07-31T06:58:02.631Z,27.00
2022-07-31T07:00:50.232Z,27.60
2022-07-31T07:03:38.590Z,27.60
2022-07-31T07:06:27.048Z,27.40
2022-07-31T07:09:14.548Z,27.70
2022-07-31T07:12:02.189Z,27.80
2022-07-31T07:14:49.689Z,27.80
2022-07-31T07:17:37.188Z,27.90
2022-07-31T07:20:24.769Z,28.00
2022-07-31T07:23:12.717Z,28.20
2022-07-31T07:26:00.167Z,28.00
2022-07-31T07:28:47.792Z,28.50
2022-07-31T07:31:35.286Z,28.20
2022-07-31T07:34:22.781Z,28.10
2022-07-31T07:37:10.300Z,28.60
2022-07-31T07:40:03.743Z,28.40
2022-07-31T07:42:51.608Z,28.00
2022-07-31T07:45:40.094Z,28.90
2022-07-31T07:48:27.665Z,28.70
2022-07-31T07:51:15.365Z,29.00
2022-07-31T07:54:02.904Z,28.70
2022-07-31T07:56:51.340Z,28.90
2022-07-31T07:59:38.825Z,29.20
2022-07-31T08:02:26.765Z,29.60
2022-07-31T08:05:14.620Z,29.20
2022-07-31T08:08:02.076Z,28.70
2022-07-31T08:10:50.001Z,29.20
2022-07-31T08:13:40.881Z,29.20
2022-07-31T08:16:28.710Z,29.10
2022-07-31T08:19:16.257Z,29.80
2022-07-31T08:22:04.226Z,29.50
2022-07-31T08:24:52.069Z,29.90
2022-07-31T08:27:40.731Z,30.00
2022-07-31T08:30:31.158Z,29.80
2022-07-31T08:33:18.913Z,30.20
2022-07-31T08:36:09.142Z,30.20
2022-07-31T08:38:56.811Z,30.10
2022-07-31T08:41:44.380Z,30.20
2022-07-31T08:44:31.905Z,29.90
2022-07-31T08:47:22.976Z,30.80
2022-07-31T08:50:15.684Z,30.50
2022-07-31T08:53:05.187Z,30.50
2022-07-31T08:55:56.417Z,31.00
2022-07-31T08:58:45.191Z,30.70
2022-07-31T09:01:37.724Z,31.30
2022-07-31T09:04:25.828Z,30.90
2022-07-31T09:07:16.818Z,30.30
2022-07-31T09:10:23.464Z,31.40
2022-07-31T09:13:19.146Z,30.80
2022-07-31T09:16:07.499Z,31.10
2022-07-31T09:19:51.852Z,31.00
2022-07-31T09:22:29.383Z,31.30
2022-07-31T09:25:19.175Z,31.90
2022-07-31T09:28:07.764Z,31.20
2022-07-31T09:30:57.121Z,31.20
2022-07-31T09:33:46.687Z,31.40
2022-07-31T09:36:35.005Z,31.40
2022-07-31T09:39:27.004Z,31.40
2022-07-31T09:42:16.640Z,32.00
2022-07-31T09:45:16.862Z,32.20
2022-07-31T09:48:14.461Z,31.90
2022-07-31T09:51:08.539Z,31.40
2022-07-31T09:53:57.929Z,31.50
2022-07-31T09:56:47.139Z,31.40
2022-07-31T09:59:34.562Z,31.60
2022-07-31T10:02:25.619Z,31.50
2022-07-31T10:05:13.983Z,32.10
2022-07-31T10:08:02.695Z,32.30
2022-07-31T10:10:50.725Z,32.50
2022-07-31T10:13:46.421Z,31.90
2022-07-31T10:16:40.781Z,32.50
2022-07-31T10:19:36.141Z,32.80
2022-07-31T10:22:26.501Z,32.50
2022-07-31T10:25:27.504Z,32.20
2022-07-31T10:28:15.820Z,32.50
2022-07-31T10:31:04.225Z,32.40
2022-07-31T10:33:52.415Z,33.00
2022-07-31T10:36:45.460Z,31.70
2022-07-31T10:39:49.918Z,31.80
2022-07-31T10:42:55.676Z,32.40
2022-07-31T10:45:54.149Z,32.00
2022-07-31T10:48:54.692Z,32.20
2022-07-31T10:51:50.911Z,31.90
2022-07-31T10:54:47.855Z,32.10
2022-07-31T10:57:56.380Z,33.00
2022-07-31T11:00:44.065Z,32.50
2022-07-31T11:03:41.879Z,32.60
2022-07-31T11:06:41.791Z,33.00
2022-07-31T11:09:30.100Z,32.60
2022-07-31T11:12:21.700Z,33.40
2022-07-31T11:15:26.045Z,33.90
2022-07-31T11:18:26.732Z,32.80
2022-07-31T11:21:37.580Z,33.70
2022-07-31T11:24:24.239Z,32.70
2022-07-31T11:27:11.750Z,33.30
2022-07-31T11:30:13.357Z,32.80
2022-07-31T11:33:01.361Z,33.40
2022-07-31T11:35:49.045Z,32.80
2022-07-31T11:38:37.791Z,33.60
2022-07-31T11:41:39.131Z,33.80
2022-07-31T11:44:31.904Z,33.70
2022-07-31T11:47:27.872Z,32.80
2022-07-31T11:50:31.105Z,32.20
2022-07-31T11:53:19.768Z,33.00
2022-07-31T11:56:10.097Z,32.70
2022-07-31T11:58:58.810Z,33.20
2022-07-31T12:01:46.417Z,32.50
2022-07-31T12:04:38.355Z,32.80
2022-07-31T12:07:25.892Z,32.60
2022-07-31T12:10:14.237Z,32.80
2022-07-31T12:13:02.820Z,32.90
2022-07-31T12:16:08.374Z,32.60
2022-07-31T12:19:01.399Z,32.60
2022-07-31T12:21:48.890Z,32.80
2022-07-31T12:24:36.395Z,32.40
2022-07-31T12:27:23.905Z,32.30
2022-07-31T12:30:16.895Z,31.40
2022-07-31T12:33:13.025Z,31.30
2022-07-31T12:36:00.535Z,32.00
2022-07-31T12:39:03.789Z,31.50
2022-07-31T12:41:51.331Z,31.90
2022-07-31T12:44:52.837Z,32.80
2022-07-31T12:47:40.571Z,33.50
2022-07-31T12:50:30.345Z,33.20
2022-07-31T12:53:17.834Z,33.30
2022-07-31T12:56:10.591Z,32.90
2022-07-31T12:58:58.104Z,33.20
2022-07-31T13:01:45.578Z,32.80
2022-07-31T13:04:34.357Z,32.50
2022-07-31T13:07:21.865Z,32.60
2022-07-31T13:10:19.993Z,32.60
2022-07-31T13:13:09.250Z,32.60
2022-07-31T13:15:56.746Z,33.00
2022-07-31T13:18:44.214Z,33.80
2022-07-31T13:21:48.431Z,34.10
2022-07-31T13:24:37.184Z,34.30
2022-07-31T13:27:24.734Z,34.40
2022-07-31T13:30:14.152Z,33.40
2022-07-31T13:33:01.691Z,33.60
2022-07-31T13:35:49.331Z,33.70
2022-07-31T13:38:36.843Z,32.80
2022-07-31T13:41:24.344Z,33.10
2022-07-31T13:44:11.770Z,32.60
2022-07-31T13:46:59.748Z,32.50
2022-07-31T13:49:47.199Z,33.00
2022-07-31T13:52:34.635Z,32.90
2022-07-31T13:55:22.163Z,33.30
2022-07-31T13:58:09.655Z,33.60
2022-07-31T14:01:00.302Z,33.90
2022-07-31T14:03:51.444Z,34.10
2022-07-31T14:06:39.598Z,34.60
2022-07-31T14:09:27.118Z,34.00
2022-07-31T14:12:14.615Z,33.40
2022-07-31T14:15:04.441Z,34.20
2022-07-31T14:17:51.943Z,33.50
2022-07-31T14:20:39.449Z,33.50
2022-07-31T14:23:34.044Z,33.60
2022-07-31T14:26:23.759Z,33.70
2022-07-31T14:29:11.293Z,33.00
2022-07-31T14:31:59.019Z,32.60
2022-07-31T14:34:52.231Z,33.00
2022-07-31T14:37:41.881Z,33.70
2022-07-31T14:40:30.928Z,33.60
2022-07-31T14:43:18.474Z,34.10
2022-07-31T14:46:07.166Z,33.70
2022-07-31T14:48:54.786Z,33.70
2022-07-31T14:51:42.309Z,33.40
2022-07-31T14:54:29.847Z,33.30
2022-07-31T14:57:21.962Z,33.30
2022-07-31T15:00:15.030Z,33.30
2022-07-31T15:03:02.656Z,33.00
2022-07-31T15:06:39.439Z,33.20
2022-07-31T15:08:57.569Z,33.70
2022-07-31T15:11:58.247Z,33.90
2022-07-31T15:14:48.299Z,34.90
2022-07-31T15:17:35.904Z,34.60
2022-07-31T15:20:28.822Z,35.00
2022-07-31T15:23:21.301Z,35.60
2022-07-31T15:26:08.854Z,34.50
2022-07-31T15:28:56.384Z,34.80
2022-07-31T15:31:43.880Z,34.50
2022-07-31T15:34:32.769Z,33.90
2022-07-31T15:37:20.705Z,33.80
2022-07-31T15:40:16.996Z,34.00
2022-07-31T15:43:04.510Z,34.00
2022-07-31T15:45:52.001Z,33.90
2022-07-31T15:48:39.805Z,33.90
2022-07-31T15:51:27.414Z,34.00
2022-07-31T15:54:15.375Z,34.00
2022-07-31T15:57:03.055Z,33.50
2022-07-31T15:59:54.496Z,33.90
2022-07-31T16:02:45.520Z,33.80
2022-07-31T16:05:36.731Z,33.80
2022-07-31T16:08:29.640Z,33.50
2022-07-31T16:11:22.030Z,34.30
2022-07-31T16:14:10.631Z,34.80
2022-07-31T16:16:58.199Z,34.90
2022-07-31T16:19:45.835Z,35.10
2022-07-31T16:22:33.320Z,35.40
2022-07-31T16:25:23.002Z,35.60
2022-07-31T16:28:10.513Z,35.40
2022-07-31T16:30:57.989Z,35.70
2022-07-31T16:33:50.795Z,35.80
2022-07-31T16:36:38.654Z,35.10
2022-07-31T16:39:26.177Z,34.70
2022-07-31T16:42:13.665Z,34.70
2022-07-31T16:45:01.156Z,35.30
2022-07-31T16:47:51.437Z,35.10
2022-07-31T16:50:39.520Z,35.00
2022-07-31T16:54:11.366Z,35.10
2022-07-31T16:56:37.624Z,35.10
2022-07-31T16:59:25.146Z,35.30
2022-07-31T17:02:13.349Z,34.90
2022-07-31T17:05:00.841Z,34.50
2022-07-31T17:07:48.295Z,34.50
2022-07-31T17:10:35.748Z,34.20
2022-07-31T17:13:23.310Z,33.70
2022-07-31T17:16:10.964Z,33.60
2022-07-31T17:18:58.811Z,33.60
2022-07-31T17:21:53.291Z,33.80
2022-07-31T17:24:41.091Z,33.60
2022-07-31T17:27:28.699Z,33.70
2022-07-31T17:30:16.309Z,33.20
2022-07-31T17:33:03.934Z,33.30
2022-07-31T17:35:51.514Z,33.10
2022-07-31T17:38:38.995Z,32.70
2022-07-31T17:41:26.635Z,32.80
2022-07-31T17:44:14.937Z,32.40
2022-07-31T17:47:03.392Z,32.60
2022-07-31T17:49:59.739Z,32.20
2022-07-31T17:55:49.999Z,31.90
2022-07-31T17:58:37.455Z,31.80
2022-07-31T18:01:28.920Z,31.80
2022-07-31T18:04:17.085Z,31.80
2022-07-31T18:07:07.484Z,31.70
2022-07-31T18:09:57.188Z,31.60
2022-07-31T18:12:57.859Z,31.50
2022-07-31T18:15:45.813Z,31.30
2022-07-31T18:18:33.184Z,31.00
2022-07-31T18:21:20.680Z,31.00
2022-07-31T18:24:08.942Z,30.80
2022-07-31T18:26:56.485Z,30.80
2022-07-31T18:29:55.883Z,30.50
2022-07-31T18:32:44.176Z,30.30
2022-07-31T18:35:31.710Z,30.10
2022-07-31T18:38:19.522Z,30.00
2022-07-31T18:41:07.324Z,29.90
2022-07-31T18:43:55.163Z,29.80
2022-07-31T18:46:42.594Z,29.70
2022-07-31T18:51:01.369Z,29.70
2022-07-31T18:52:37.595Z,29.80
2022-07-31T18:55:25.189Z,29.80
2022-07-31T18:58:13.094Z,29.80
2022-07-31T19:01:00.969Z,29.80
2022-07-31T19:03:49.593Z,29.70
2022-07-31T19:06:37.119Z,29.60
2022-07-31T19:09:25.392Z,29.60
2022-07-31T19:12:14.079Z,29.50
2022-07-31T19:15:02.932Z,29.40
2022-07-31T19:17:50.374Z,29.40
2022-07-31T19:20:41.324Z,29.40
2022-07-31T19:23:47.118Z,29.40
2022-07-31T19:26:34.696Z,29.40
2022-07-31T19:29:23.483Z,29.30
2022-07-31T19:32:11.674Z,29.20
2022-07-31T19:34:59.178Z,29.10
2022-07-31T19:37:46.814Z,29.10
2022-07-31T19:40:34.480Z,29.20
2022-07-31T19:43:21.948Z,29.20
2022-07-31T19:46:11.715Z,29.40
2022-07-31T19:49:01.492Z,29.40
2022-07-31T19:51:48.998Z,29.40
2022-07-31T19:54:37.318Z,29.30
2022-07-31T19:57:24.848Z,29.20
2022-07-31T20:00:13.664Z,29.20
2022-07-31T20:03:01.233Z,29.10
2022-07-31T20:05:48.754Z,29.10
2022-07-31T20:08:36.439Z,29.10
2022-07-31T20:11:24.159Z,29.00
2022-07-31T20:14:11.619Z,28.80
2022-07-31T20:16:59.149Z,28.80
2022-07-31T20:20:13.308Z,28.60
2022-07-31T20:22:54.004Z,28.60
2022-07-31T20:25:41.590Z,28.60
2022-07-31T20:28:29.109Z,28.50
2022-07-31T20:31:21.728Z,28.60
2022-07-31T20:34:09.709Z,28.60
2022-07-31T20:36:58.825Z,28.50
2022-07-31T20:39:46.885Z,28.60
2022-07-31T20:42:34.583Z,28.70
2022-07-31T20:45:23.413Z,28.60
2022-07-31T20:48:11.024Z,28.60
2022-07-31T20:51:00.570Z,28.70
2022-07-31T20:53:49.859Z,28.80
2022-07-31T20:56:37.740Z,28.80
2022-07-31T20:59:27.219Z,28.70
2022-07-31T21:02:14.684Z,28.60
2022-07-31T21:05:02.807Z,28.70
2022-07-31T21:07:50.300Z,28.70
2022-07-31T21:10:38.704Z,28.70
2022-07-31T21:13:29.159Z,28.70
2022-07-31T21:16:16.628Z,28.60
2022-07-31T21:19:04.239Z,28.50
2022-07-31T21:21:52.533Z,28.40
2022-07-31T21:24:40.442Z,28.40
2022-07-31T21:27:31.139Z,28.40
2022-07-31T21:30:18.760Z,28.30
2022-07-31T21:33:08.220Z,28.20
2022-07-31T21:35:56.504Z,28.20
2022-07-31T21:38:44.459Z,28.30
2022-07-31T21:41:32.379Z,28.30
2022-07-31T21:44:20.334Z,28.40
2022-07-31T21:47:14.785Z,28.30
2022-07-31T21:50:09.262Z,28.40
2022-07-31T21:52:56.786Z,28.50
2022-07-31T21:55:44.260Z,28.50
2022-07-31T21:58:31.804Z,28.50
2022-07-31T22:01:19.364Z,28.40
2022-07-31T22:04:06.895Z,28.50
2022-07-31T22:07:13.059Z,28.50
2022-07-31T22:10:00.631Z,28.50
2022-07-31T22:12:49.194Z,28.60
2022-07-31T22:15:51.433Z,28.70
2022-07-31T22:18:45.040Z,28.70
2022-07-31T22:21:33.406Z,28.70
2022-07-31T22:24:21.046Z,28.70
2022-07-31T22:27:43.999Z,28.70
2022-07-31T22:30:31.802Z,28.60
2022-07-31T22:33:20.143Z,28.60
2022-07-31T22:36:08.429Z,28.60
2022-07-31T22:38:57.305Z,28.60
2022-07-31T22:41:44.865Z,28.50
2022-07-31T22:44:32.440Z,28.60
2022-07-31T22:47:20.200Z,28.50
2022-07-31T22:50:10.321Z,28.50
2022-07-31T22:52:58.263Z,28.40
2022-07-31T22:55:45.769Z,28.30
2022-07-31T22:58:33.238Z,28.10
2022-07-31T23:01:20.758Z,28.20
2022-07-31T23:04:08.296Z,28.10
2022-07-31T23:06:56.320Z,28.20
2022-07-31T23:09:43.840Z,28.10
2022-07-31T23:12:31.428Z,28.10
2022-07-31T23:15:19.020Z,28.10
2022-07-31T23:18:06.595Z,28.10
2022-07-31T23:20:54.138Z,28.00
2022-07-31T23:23:42.216Z,27.90
2022-07-31T23:26:37.206Z,28.00
2022-07-31T23:29:24.784Z,27.90
2022-07-31T23:32:12.346Z,27.10
2022-07-31T23:34:59.835Z,27.00
2022-07-31T23:37:47.950Z,27.40
2022-07-31T23:40:35.475Z,27.50
2022-07-31T23:43:24.124Z,27.60
2022-07-31T23:46:11.594Z,27.50
2022-07-31T23:48:59.186Z,27.60
2022-07-31T23:51:46.729Z,27.60
2022-07-31T23:54:34.234Z,27.60
2022-07-31T23:57:21.730Z,27.60
